createdAt,value
2019-05-19T00:00:22.545Z,19.60
2019-05-19T00:02:55.139Z,19.53
2019-05-19T00:05:28.210Z,21.03
2019-05-19T00:08:00.888Z,20.43
2019-05-19T00:10:33.569Z,18.50
2019-05-19T00:13:05.833Z,19.37
2019-05-19T00:15:38.069Z,18.97
2019-05-19T00:18:10.687Z,19.87
2019-05-19T00:20:43.359Z,19.53
2019-05-19T00:23:16.048Z,19.90
2019-05-19T00:25:48.726Z,18.27
2019-05-19T00:28:21.402Z,20.70
2019-05-19T00:30:54.189Z,19.73
2019-05-19T00:33:27.369Z,21.10
2019-05-19T00:36:00.054Z,19.57
2019-05-19T00:38:32.737Z,20.03
2019-05-19T00:41:05.509Z,18.70
2019-05-19T00:43:38.706Z,19.57
2019-05-19T00:46:11.385Z,19.17
2019-05-19T00:48:44.272Z,18.53
2019-05-19T00:51:17.036Z,21.20
2019-05-19T00:53:49.739Z,19.13
2019-05-19T00:56:23.336Z,19.43
2019-05-19T00:58:59.282Z,20.50
2019-05-19T01:01:32.065Z,19.53
2019-05-19T01:04:04.763Z,20.27
2019-05-19T01:06:36.980Z,20.43
2019-05-19T01:09:09.703Z,22.17
2019-05-19T01:11:42.271Z,21.57
2019-05-19T01:14:15.447Z,23.17
2019-05-19T01:16:48.553Z,21.33
2019-05-19T01:19:21.235Z,22.67
2019-05-19T01:21:54.927Z,21.17
2019-05-19T01:24:27.817Z,22.30
2019-05-19T01:27:00.359Z,22.13
2019-05-19T01:29:33.180Z,23.27
2019-05-19T01:32:06.065Z,22.57
2019-05-19T01:34:38.738Z,21.93
2019-05-19T01:37:10.969Z,22.73
2019-05-19T01:39:43.582Z,23.23
2019-05-19T01:42:16.165Z,23.93
2019-05-19T01:44:48.784Z,22.60
2019-05-19T01:47:22.747Z,22.27
2019-05-19T01:50:15.068Z,21.80
2019-05-19T01:52:30.664Z,23.13
2019-05-19T01:55:03.343Z,24.20
2019-05-19T01:57:36.124Z,23.93
2019-05-19T02:00:11.069Z,26.00
2019-05-19T02:02:43.740Z,25.40
2019-05-19T02:05:17.132Z,24.00
2019-05-19T02:07:49.924Z,28.90
2019-05-19T02:10:23.314Z,29.00
2019-05-19T02:12:55.935Z,28.50
2019-05-19T02:15:28.677Z,28.03
2019-05-19T02:18:01.357Z,27.27
2019-05-19T02:20:34.120Z,24.77
2019-05-19T02:23:06.809Z,23.33
2019-05-19T02:25:39.491Z,24.10
2019-05-19T02:28:12.188Z,21.83
2019-05-19T02:30:44.858Z,23.90
2019-05-19T02:33:17.091Z,22.47
2019-05-19T02:35:49.665Z,23.57
2019-05-19T02:38:22.379Z,22.33
2019-05-19T02:40:58.334Z,22.77
2019-05-19T02:43:31.422Z,23.60
2019-05-19T02:46:05.638Z,22.90
2019-05-19T02:48:40.560Z,24.53
2019-05-19T02:51:15.215Z,26.40
2019-05-19T02:53:48.277Z,25.87
2019-05-19T02:56:22.793Z,24.70
2019-05-19T02:58:57.119Z,25.07
2019-05-19T03:01:29.789Z,27.60
2019-05-19T03:04:02.374Z,27.10
2019-05-19T03:06:35.059Z,28.77
2019-05-19T03:09:07.739Z,28.33
2019-05-19T03:11:40.521Z,26.30
2019-05-19T03:14:13.200Z,26.10
2019-05-19T03:16:45.870Z,26.33
2019-05-19T03:19:18.568Z,26.50
2019-05-19T03:21:51.245Z,29.37
2019-05-19T03:24:24.427Z,30.50
2019-05-19T03:26:57.104Z,27.90
2019-05-19T03:29:31.322Z,28.50
2019-05-19T03:32:11.698Z,29.50
2019-05-19T03:34:39.858Z,27.23
2019-05-19T03:37:12.531Z,31.20
2019-05-19T03:39:45.207Z,27.83
2019-05-19T03:42:17.995Z,25.60
2019-05-19T03:44:50.666Z,27.40
2019-05-19T03:47:24.473Z,30.20
2019-05-19T03:49:57.152Z,31.33
2019-05-19T03:52:29.940Z,30.60
2019-05-19T03:55:03.841Z,31.73
2019-05-19T03:57:36.521Z,30.40
2019-05-19T04:00:10.923Z,31.17
2019-05-19T04:02:43.733Z,31.57
2019-05-19T04:05:16.511Z,31.13
2019-05-19T04:07:49.183Z,33.20
2019-05-19T04:10:22.071Z,33.17
2019-05-19T04:12:55.071Z,30.20
2019-05-19T04:15:28.040Z,31.17
2019-05-19T04:18:00.725Z,32.27
2019-05-19T04:20:34.164Z,30.80
2019-05-19T04:23:06.909Z,31.83
2019-05-19T04:25:40.609Z,30.90
2019-05-19T04:28:13.897Z,32.83
2019-05-19T04:30:46.773Z,33.07
2019-05-19T04:36:20.813Z,30.33
2019-05-19T04:38:53.482Z,30.87
2019-05-19T04:41:26.246Z,31.60
2019-05-19T04:43:58.942Z,30.03
2019-05-19T04:50:13.847Z,29.93
2019-05-19T04:52:56.966Z,29.70
2019-05-19T04:55:30.459Z,28.10
2019-05-19T04:58:03.142Z,28.67
2019-05-19T05:00:35.814Z,29.60
2019-05-19T05:03:08.075Z,28.93
2019-05-19T05:05:40.763Z,27.47
2019-05-19T05:08:29.033Z,27.87
2019-05-19T05:10:48.074Z,28.40
2019-05-19T05:13:20.742Z,28.50
2019-05-19T05:15:53.323Z,28.43
2019-05-19T05:18:27.674Z,28.80
2019-05-19T05:21:00.530Z,27.83
2019-05-19T05:23:33.311Z,26.70
2019-05-19T05:26:05.989Z,28.17
2019-05-19T05:28:38.431Z,28.40
2019-05-19T05:31:15.337Z,29.03
2019-05-19T05:33:46.887Z,27.73
2019-05-19T05:36:19.467Z,27.47
2019-05-19T05:38:52.202Z,29.60
2019-05-19T05:41:24.820Z,28.73
2019-05-19T05:43:57.609Z,28.90
2019-05-19T05:46:30.710Z,27.90
2019-05-19T05:49:02.968Z,28.13
2019-05-19T05:51:35.751Z,27.97
2019-05-19T05:54:09.344Z,29.33
2019-05-19T05:56:42.126Z,28.87
2019-05-19T05:59:14.801Z,29.30
2019-05-19T06:01:47.738Z,29.53
2019-05-19T06:04:20.381Z,27.47
2019-05-19T06:06:53.358Z,28.27
2019-05-19T06:09:26.046Z,27.90
2019-05-19T06:11:59.081Z,28.20
2019-05-19T06:14:32.414Z,29.03
2019-05-19T06:17:05.426Z,27.37
2019-05-19T06:19:38.090Z,27.00
2019-05-19T06:22:10.863Z,27.13
2019-05-19T06:24:43.542Z,30.30
2019-05-19T06:27:16.330Z,29.40
2019-05-19T06:29:49.624Z,28.20
2019-05-19T06:32:41.963Z,28.20
2019-05-19T06:35:15.391Z,28.17
2019-05-19T06:37:48.450Z,29.87
2019-05-19T06:40:22.655Z,29.30
2019-05-19T06:42:55.345Z,30.40
2019-05-19T06:45:28.024Z,28.37
2019-05-19T06:48:00.715Z,26.53
2019-05-19T06:50:33.382Z,26.97
2019-05-19T06:53:13.885Z,26.83
2019-05-19T06:55:39.834Z,23.33
2019-05-19T06:58:12.402Z,20.70
2019-05-19T07:00:45.634Z,19.37
2019-05-19T07:03:18.216Z,19.37
2019-05-19T07:05:50.889Z,19.00
2019-05-19T07:08:23.575Z,16.67
2019-05-19T07:10:56.186Z,24.23
2019-05-19T07:13:28.824Z,21.43
2019-05-19T07:16:01.144Z,21.87
2019-05-19T07:18:33.773Z,20.20
2019-05-19T07:21:06.440Z,18.07
2019-05-19T07:23:39.123Z,22.13
2019-05-19T07:26:12.022Z,12.03
2019-05-19T07:28:44.686Z,13.00
2019-05-19T07:31:17.374Z,8.67
2019-05-19T07:33:50.104Z,10.47
2019-05-19T07:36:24.556Z,6.90
2019-05-19T07:38:59.539Z,4.13
2019-05-19T07:41:32.499Z,5.93
2019-05-19T07:44:05.161Z,6.70
2019-05-19T07:46:39.278Z,6.17
2019-05-19T07:49:11.955Z,42.00
2019-05-19T07:51:44.690Z,15.53
2019-05-19T07:54:17.529Z,10.70
2019-05-19T07:56:51.854Z,10.23
2019-05-19T07:59:24.414Z,9.93
2019-05-19T08:01:56.073Z,11.50
2019-05-19T08:04:28.751Z,11.20
2019-05-19T08:07:01.435Z,9.47
2019-05-19T08:09:34.116Z,10.73
2019-05-19T08:12:06.900Z,10.70
2019-05-19T08:14:40.290Z,11.07
2019-05-19T08:17:13.175Z,11.23
2019-05-19T08:19:48.652Z,11.83
2019-05-19T08:22:24.433Z,13.03
2019-05-19T08:24:57.043Z,12.53
2019-05-19T08:47:15.443Z,8.00
2019-05-19T08:49:48.103Z,7.23
2019-05-19T08:52:20.786Z,6.50
2019-05-19T08:54:53.459Z,6.07
2019-05-19T08:57:25.767Z,6.73
2019-05-19T08:59:58.006Z,8.27
2019-05-19T09:02:30.681Z,6.93
2019-05-19T09:05:03.358Z,7.40
2019-05-19T09:07:36.032Z,5.93
2019-05-19T09:10:13.419Z,6.20
2019-05-19T09:12:46.112Z,6.53
2019-05-19T09:15:18.797Z,6.70
2019-05-19T09:17:54.095Z,6.00
2019-05-19T09:20:25.326Z,6.93
2019-05-19T09:22:58.056Z,6.23
2019-05-19T09:25:30.731Z,6.70
2019-05-19T09:28:03.405Z,6.50
2019-05-19T09:30:36.089Z,6.27
2019-05-19T09:33:08.768Z,6.80
2019-05-19T09:35:41.337Z,6.03
2019-05-19T09:38:14.081Z,6.77
2019-05-19T09:40:47.007Z,6.97
2019-05-19T09:43:19.685Z,6.83
2019-05-19T09:45:52.363Z,6.10
2019-05-19T09:48:25.050Z,6.83
2019-05-19T09:50:57.718Z,7.83
2019-05-19T09:53:30.467Z,8.60
2019-05-19T09:56:02.982Z,9.80
2019-05-19T09:58:35.662Z,9.63
2019-05-19T10:01:09.266Z,9.57
2019-05-19T10:03:41.947Z,8.77
2019-05-19T10:06:14.615Z,8.57
2019-05-19T10:08:51.127Z,8.77
2019-05-19T10:11:32.842Z,9.80
2019-05-19T10:14:05.570Z,12.33
2019-05-19T10:16:38.262Z,13.17
2019-05-19T10:19:11.023Z,15.47
2019-05-19T10:21:44.821Z,14.50
2019-05-19T10:24:17.509Z,18.00
2019-05-19T10:26:50.179Z,19.77
2019-05-19T10:29:22.864Z,23.77
2019-05-19T10:31:55.594Z,25.10
2019-05-19T10:34:28.226Z,28.00
2019-05-19T10:37:00.485Z,27.73
2019-05-19T10:39:33.174Z,27.80
2019-05-19T10:42:05.853Z,28.27
2019-05-19T10:44:38.522Z,30.30
2019-05-19T10:47:11.105Z,29.77
2019-05-19T10:49:43.782Z,32.00
2019-05-19T10:52:16.455Z,29.87
2019-05-19T10:54:49.016Z,28.30
2019-05-19T10:57:21.624Z,28.10
2019-05-19T10:59:54.301Z,28.67
2019-05-19T11:02:26.982Z,27.83
2019-05-19T11:04:59.656Z,31.23
2019-05-19T11:07:32.344Z,23.93
2019-05-19T11:10:07.067Z,26.53
2019-05-19T11:12:39.731Z,23.27
2019-05-19T11:15:13.229Z,24.00
2019-05-19T11:17:45.913Z,24.80
2019-05-19T11:20:18.696Z,21.93
2019-05-19T11:22:51.376Z,19.10
2019-05-19T11:25:33.465Z,14.37
2019-05-19T11:27:59.499Z,13.77
2019-05-19T11:30:32.490Z,18.20
2019-05-19T11:33:05.064Z,17.83
2019-05-19T11:35:37.322Z,16.40
2019-05-19T11:38:10.016Z,14.87
2019-05-19T11:40:42.688Z,15.23
2019-05-19T11:43:15.268Z,13.90
2019-05-19T11:45:47.946Z,12.97
2019-05-19T11:48:20.622Z,12.33
2019-05-19T11:50:53.305Z,11.43
2019-05-19T11:53:25.881Z,12.10
2019-05-19T11:56:06.377Z,11.60
2019-05-19T11:58:32.854Z,12.53
2019-05-19T12:01:05.481Z,14.80
2019-05-19T12:03:38.138Z,12.30
2019-05-19T12:06:12.356Z,13.57
2019-05-19T12:08:45.033Z,13.67
2019-05-19T12:11:17.706Z,13.83
2019-05-19T12:13:50.386Z,13.37
2019-05-19T12:16:23.071Z,13.07
2019-05-19T12:18:57.611Z,11.50
2019-05-19T12:21:29.954Z,11.13
2019-05-19T12:24:03.566Z,11.50
2019-05-19T12:26:36.273Z,11.70
2019-05-19T12:29:08.925Z,11.43
2019-05-19T12:31:41.757Z,11.10
2019-05-19T12:34:14.282Z,11.00
2019-05-19T12:36:47.977Z,11.90
2019-05-19T12:39:20.870Z,11.30
2019-05-19T12:41:53.550Z,11.47
2019-05-19T12:44:26.221Z,11.28
2019-05-19T12:46:58.899Z,10.13
2019-05-19T12:49:31.584Z,11.00
2019-05-19T12:52:04.271Z,10.93
2019-05-19T12:54:36.798Z,11.05
2019-05-19T12:57:09.413Z,11.90
2019-05-19T12:59:42.099Z,12.05
2019-05-19T13:02:14.778Z,11.30
2019-05-19T13:05:03.558Z,11.68
2019-05-19T13:07:21.771Z,10.17
2019-05-19T13:09:54.664Z,11.20
2019-05-19T13:12:27.370Z,10.60
2019-05-19T13:14:59.913Z,9.80
2019-05-19T13:17:32.593Z,9.13
2019-05-19T13:20:05.379Z,8.20
2019-05-19T13:22:38.130Z,9.10
2019-05-19T13:25:10.733Z,8.70
2019-05-19T13:27:43.714Z,8.70
2019-05-19T13:30:16.296Z,8.70
2019-05-19T13:32:48.976Z,8.60
2019-05-19T13:35:22.054Z,8.37
2019-05-19T13:37:55.050Z,8.40
2019-05-19T13:40:27.621Z,8.90
2019-05-19T13:42:59.279Z,8.90
2019-05-19T13:45:31.957Z,8.77
2019-05-19T13:48:04.643Z,8.40
2019-05-19T13:50:37.218Z,8.20
2019-05-19T13:53:09.894Z,8.30
2019-05-19T13:55:42.883Z,8.40
2019-05-19T13:58:15.139Z,8.27
2019-05-19T14:00:47.722Z,8.20
2019-05-19T14:03:20.406Z,8.37
2019-05-19T14:05:53.081Z,8.10
2019-05-19T14:08:25.826Z,8.57
2019-05-19T14:10:58.411Z,7.97
2019-05-19T14:13:32.552Z,8.20
2019-05-19T14:16:05.135Z,7.90
2019-05-19T14:18:37.930Z,7.73
2019-05-19T14:21:10.498Z,8.13
2019-05-19T14:23:43.175Z,8.37
2019-05-19T14:26:15.847Z,7.77
2019-05-19T14:28:48.100Z,7.30
2019-05-19T14:31:21.956Z,7.90
2019-05-19T14:33:54.182Z,7.30
2019-05-19T14:36:26.404Z,7.50
2019-05-19T14:39:05.431Z,7.63
2019-05-19T14:41:37.964Z,7.40
2019-05-19T14:44:10.654Z,7.43
2019-05-19T14:46:43.217Z,7.30
2019-05-19T14:49:15.895Z,7.50
2019-05-19T14:51:48.470Z,6.70
2019-05-19T14:54:21.161Z,6.73
2019-05-19T14:56:53.744Z,6.97
2019-05-19T14:59:26.412Z,6.30
2019-05-19T15:01:59.096Z,6.00
2019-05-19T15:04:31.769Z,5.40
2019-05-19T15:07:03.989Z,5.42
2019-05-19T15:09:36.614Z,4.90
2019-05-19T15:12:09.248Z,5.07
2019-05-19T15:14:41.866Z,5.10
2019-05-19T15:17:14.451Z,4.58
2019-05-19T15:19:47.451Z,4.70
2019-05-19T15:22:20.014Z,4.97
2019-05-19T15:24:52.700Z,4.58
2019-05-19T15:27:25.370Z,5.20
2019-05-19T15:30:11.880Z,4.65
2019-05-19T15:32:32.264Z,5.20
2019-05-19T15:35:06.788Z,4.60
2019-05-19T15:37:40.400Z,4.80
2019-05-19T15:40:13.581Z,5.40
2019-05-19T15:42:46.265Z,4.50
2019-05-19T15:45:19.046Z,3.47
2019-05-19T15:47:51.622Z,4.28
2019-05-19T15:50:24.085Z,4.20
2019-05-19T15:52:56.669Z,4.00
2019-05-19T15:55:29.345Z,3.95
2019-05-19T15:58:15.479Z,3.05
2019-05-19T16:00:36.242Z,3.00
2019-05-19T16:03:08.814Z,4.20
2019-05-19T16:05:41.504Z,3.30
2019-05-19T16:08:14.696Z,3.40
2019-05-19T16:10:47.366Z,3.90
2019-05-19T16:13:21.971Z,5.77
2019-05-19T16:15:53.961Z,4.03
2019-05-19T16:18:26.533Z,4.33
2019-05-19T16:20:59.216Z,5.17
2019-05-19T16:23:31.795Z,4.90
2019-05-19T16:26:04.463Z,4.33
2019-05-19T16:28:37.061Z,4.63
2019-05-19T16:31:09.787Z,4.50
2019-05-19T16:33:42.406Z,4.33
2019-05-19T16:36:15.078Z,4.30
2019-05-19T16:38:48.070Z,4.60
2019-05-19T16:41:20.327Z,4.80
2019-05-19T16:43:54.142Z,4.53
2019-05-19T16:46:26.820Z,4.70
2019-05-19T16:48:59.402Z,4.90
2019-05-19T16:51:32.020Z,5.13
2019-05-19T16:54:12.229Z,5.43
2019-05-19T16:56:45.162Z,5.23
2019-05-19T16:59:17.803Z,5.50
2019-05-19T17:01:50.485Z,5.27
2019-05-19T17:04:23.161Z,5.43
2019-05-19T17:06:56.137Z,5.50
2019-05-19T17:09:28.703Z,5.97
2019-05-19T17:12:06.708Z,5.50
2019-05-19T17:14:38.285Z,6.50
2019-05-19T17:17:11.665Z,6.47
2019-05-19T17:19:45.460Z,6.27
2019-05-19T17:22:18.141Z,6.37
2019-05-19T17:24:50.719Z,6.30
2019-05-19T17:27:23.400Z,6.63
2019-05-19T17:29:55.944Z,6.40
2019-05-19T17:32:28.664Z,6.90
2019-05-19T17:35:01.246Z,7.13
2019-05-19T17:37:33.910Z,7.37
2019-05-19T17:40:08.843Z,7.13
2019-05-19T17:42:43.288Z,8.77
2019-05-19T17:45:15.950Z,11.07
2019-05-19T17:47:53.002Z,10.03
2019-05-19T17:50:35.993Z,10.10
2019-05-19T17:53:08.374Z,10.73
2019-05-19T17:55:42.223Z,11.47
2019-05-19T17:58:14.911Z,9.10
2019-05-19T18:00:47.477Z,7.60
2019-05-19T18:03:20.168Z,7.47
2019-05-19T18:05:52.752Z,7.30
2019-05-19T18:08:25.827Z,7.40
2019-05-19T18:10:58.436Z,7.50
2019-05-19T18:13:31.317Z,6.70
2019-05-19T18:16:04.271Z,7.87
2019-05-19T18:18:36.948Z,7.77
2019-05-19T18:21:09.553Z,8.50
2019-05-19T18:23:42.208Z,7.90
2019-05-19T18:26:14.896Z,8.00
2019-05-19T18:28:47.565Z,6.80
2019-05-19T18:31:20.143Z,6.83
2019-05-19T18:33:53.284Z,6.77
2019-05-19T18:36:25.911Z,10.57
2019-05-19T18:38:58.539Z,8.00
2019-05-19T18:41:31.170Z,6.77
2019-05-19T18:44:04.053Z,6.67
2019-05-19T18:46:36.735Z,5.90
2019-05-19T18:49:09.432Z,6.33
2019-05-19T18:51:41.989Z,6.03
2019-05-19T18:54:14.671Z,6.67
2019-05-19T18:56:50.588Z,6.53
2019-05-19T18:59:21.921Z,7.23
2019-05-19T19:01:54.541Z,6.93
2019-05-19T19:04:27.232Z,7.57
2019-05-19T19:06:59.862Z,7.77
2019-05-19T19:09:32.893Z,8.47
2019-05-19T19:12:05.736Z,8.00
2019-05-19T19:14:38.462Z,8.73
2019-05-19T19:17:11.139Z,8.80
2019-05-19T19:19:43.849Z,9.47
2019-05-19T19:22:16.496Z,8.60
2019-05-19T19:24:49.188Z,8.50
2019-05-19T19:27:21.846Z,8.63
2019-05-19T19:30:03.345Z,7.93
2019-05-19T19:32:30.994Z,8.10
2019-05-19T19:35:04.380Z,7.50
2019-05-19T19:37:36.993Z,7.20
2019-05-19T19:40:12.914Z,6.70
2019-05-19T19:42:45.515Z,6.73
2019-05-19T19:45:18.191Z,7.20
2019-05-19T19:47:50.761Z,7.10
2019-05-19T19:50:23.441Z,7.07
2019-05-19T19:52:56.018Z,6.40
2019-05-19T19:55:28.696Z,6.30
2019-05-19T19:58:01.316Z,6.40
2019-05-19T20:00:42.340Z,6.13
2019-05-19T20:03:15.532Z,6.20
2019-05-19T20:05:49.748Z,6.00
2019-05-19T20:08:22.336Z,6.03
2019-05-19T20:10:55.427Z,5.87
2019-05-19T20:13:28.010Z,5.50
2019-05-19T20:16:00.618Z,5.17
2019-05-19T20:18:33.366Z,5.63
2019-05-19T20:21:05.617Z,5.40
2019-05-19T20:23:38.300Z,5.80
2019-05-19T20:26:10.984Z,5.20
2019-05-19T20:28:43.193Z,5.80
2019-05-19T20:31:15.830Z,5.80
2019-05-19T20:33:48.713Z,5.17
2019-05-19T20:36:21.405Z,6.90
2019-05-19T20:38:53.966Z,6.03
2019-05-19T20:41:26.642Z,5.43
2019-05-19T20:43:59.220Z,5.50
2019-05-19T20:46:31.905Z,4.60
2019-05-19T20:49:05.696Z,5.17
2019-05-19T20:51:38.387Z,5.40
2019-05-19T20:54:10.961Z,5.50
2019-05-19T20:56:43.640Z,4.90
2019-05-19T20:59:16.229Z,4.80
2019-05-19T21:01:49.131Z,5.50
2019-05-19T21:04:21.783Z,5.90
2019-05-19T21:06:54.463Z,5.50
2019-05-19T21:09:27.038Z,5.23
2019-05-19T21:11:59.818Z,5.60
2019-05-19T21:14:32.028Z,5.50
2019-05-19T21:17:04.671Z,5.27
2019-05-19T21:19:37.251Z,5.50
2019-05-19T21:22:11.059Z,5.03
2019-05-19T21:24:43.542Z,5.50
2019-05-19T21:27:16.204Z,5.10
2019-05-19T21:29:48.776Z,5.70
2019-05-19T21:32:22.175Z,5.03
2019-05-19T21:34:54.381Z,6.20
2019-05-19T21:37:27.023Z,6.80
2019-05-19T21:39:59.612Z,5.93
2019-05-19T21:42:31.972Z,7.37
2019-05-19T21:45:04.912Z,6.70
2019-05-19T21:47:37.540Z,5.90
2019-05-19T21:50:11.180Z,4.97
2019-05-19T21:52:43.821Z,5.10
2019-05-19T21:55:16.031Z,5.57
2019-05-19T21:57:48.771Z,5.40
2019-05-19T22:00:23.596Z,5.30
2019-05-19T22:02:57.434Z,5.03
2019-05-19T22:05:29.631Z,5.00
2019-05-19T22:08:06.857Z,4.63
2019-05-19T22:10:39.437Z,5.57
2019-05-19T22:13:12.134Z,5.47
2019-05-19T22:15:44.788Z,5.30
2019-05-19T22:18:17.466Z,5.40
2019-05-19T22:20:50.099Z,4.97
2019-05-19T22:23:22.730Z,5.20
2019-05-19T22:25:54.955Z,4.97
2019-05-19T22:28:27.669Z,5.10
2019-05-19T22:31:00.286Z,4.37
2019-05-19T22:33:32.929Z,5.00
2019-05-19T22:36:05.562Z,5.50
2019-05-19T22:38:38.178Z,5.17
2019-05-19T22:41:10.755Z,5.40
2019-05-19T22:43:43.439Z,5.50
2019-05-19T22:46:16.124Z,5.33
2019-05-19T22:48:48.807Z,5.80
2019-05-19T22:51:22.840Z,6.43
2019-05-19T22:53:55.781Z,5.90
2019-05-19T22:56:28.367Z,5.67
2019-05-19T22:59:00.942Z,5.53
2019-05-19T23:01:33.728Z,5.60
2019-05-19T23:04:06.647Z,5.37
2019-05-19T23:06:39.391Z,5.57
2019-05-19T23:09:12.379Z,5.93
2019-05-19T23:11:44.592Z,5.90
2019-05-19T23:14:18.373Z,5.53
2019-05-19T23:16:52.163Z,6.03
2019-05-19T23:19:24.835Z,5.57
2019-05-19T23:21:57.517Z,6.23
2019-05-19T23:24:30.297Z,6.73
2019-05-19T23:27:02.874Z,7.20
2019-05-19T23:29:35.692Z,7.10
2019-05-19T23:32:08.247Z,6.80
2019-05-19T23:34:40.910Z,7.10
2019-05-19T23:37:13.594Z,7.00
2019-05-19T23:39:46.276Z,7.00
2019-05-19T23:42:18.847Z,7.60
2019-05-19T23:44:52.652Z,7.93
2019-05-19T23:47:25.334Z,8.00
2019-05-19T23:49:58.025Z,9.10
2019-05-19T23:52:30.907Z,8.80
2019-05-19T23:55:03.986Z,8.90
2019-05-19T23:57:36.592Z,8.70
